臺北飛航情報區 - 海峽席

METAR RCTP 051130Z 22007KT 9999 FEW020 31/25 Q1006 NOSIG RMK A2972=

站台狀態:Online
最後更新:2020-07-05 19:30:01